Time;durP1;ratioP1;P1;durP2;ratioP2;P2;SDS_P1;SDS_P2;PMS_P1;PMS_P2;Temp;Humidity;BMP_temperature;BMP_pressure;BME280_temperature;BME280_humidity;BME280_pressure;Samples;Min_cycle;Max_cycle;Signal;HPM_P1;HPM_P2
2021/08/26 00:06:39;;;;;;;3.83;2.42;;;;;;;17.36;100.00;94851.75;5128344;27;20418;-71
2021/08/26 00:09:06;;;;;;;4.63;3.28;;;;;;;17.28;100.00;94851.53;5124881;27;20620;-71
2021/08/26 00:11:33;;;;;;;4.25;2.53;;;;;;;17.15;100.00;94842.38;5107738;28;20039;-71
2021/08/26 00:14:01;;;;;;;3.42;2.72;;;;;;;17.04;100.00;94846.91;5106624;28;20039;-71
2021/08/26 00:16:28;;;;;;;4.82;2.85;;;;;;;17.04;100.00;94841.66;5124152;27;20035;-71
2021/08/26 00:18:56;;;;;;;3.88;2.78;;;;;;;17.06;100.00;94844.81;5127564;27;20045;-71
2021/08/26 00:21:23;;;;;;;2.67;1.92;;;;;;;16.97;100.00;94847.19;5125919;27;20043;-70
2021/08/26 00:23:50;;;;;;;6.05;2.88;;;;;;;16.84;100.00;94831.25;5106891;28;20036;-70
2021/08/26 00:26:17;;;;;;;3.42;2.47;;;;;;;16.88;100.00;94842.78;5116920;27;20039;-71
2021/08/26 00:28:43;;;;;;;4.68;2.88;;;;;;;16.81;100.00;94838.56;5127810;27;20092;-71
2021/08/26 00:31:10;;;;;;;5.38;3.40;;;;;;;16.84;100.00;94842.53;5127792;27;20523;-71
2021/08/26 00:33:37;;;;;;;4.97;2.63;;;;;;;16.85;100.00;94838.84;5108830;27;20043;-70
2021/08/26 00:36:04;;;;;;;4.95;2.47;;;;;;;16.92;100.00;94844.59;5105347;28;20562;-71
2021/08/26 00:38:31;;;;;;;3.78;2.38;;;;;;;16.91;100.00;94837.78;5107268;27;20043;-71
2021/08/26 00:40:59;;;;;;;4.43;2.67;;;;;;;16.91;100.00;94831.75;5124586;27;20126;-71
2021/08/26 00:43:31;;;;;;;3.10;1.95;;;;;;;16.87;100.00;94826.22;5106503;28;20040;-71
2021/08/26 00:45:58;;;;;;;3.88;2.42;;;;;;;16.84;100.00;94826.75;5117097;27;20031;-70
2021/08/26 00:48:26;;;;;;;4.90;2.75;;;;;;;16.82;100.00;94828.84;5124607;27;20109;-70
2021/08/26 00:50:56;;;;;;;4.50;2.35;;;;;;;16.87;100.00;94826.22;5112776;27;20031;-71
2021/08/26 00:53:24;;;;;;;6.65;2.70;;;;;;;16.76;100.00;94824.66;5106604;28;20044;-71
2021/08/26 00:55:55;;;;;;;4.22;2.85;;;;;;;16.76;100.00;94829.91;5106589;28;20125;-70
2021/08/26 00:58:23;;;;;;;3.80;2.38;;;;;;;16.77;100.00;94831.50;5118742;27;20087;-70
2021/08/26 01:01:00;;;;;;;2.97;2.20;;;;;;;16.69;100.00;94832.03;5127406;27;20498;-70
2021/08/26 01:03:42;;;;;;;3.97;2.25;;;;;;;16.62;100.00;94846.28;5126781;27;20031;-71
2021/08/26 01:06:18;;;;;;;3.95;2.78;;;;;;;16.65;100.00;94849.41;5117274;27;20096;-70
2021/08/26 01:08:55;;;;;;;4.45;2.92;;;;;;;16.55;100.00;94830.00;5107023;28;20088;-70
2021/08/26 01:11:23;;;;;;;4.93;3.42;;;;;;;16.59;100.00;94841.53;5106689;28;20432;-71
2021/08/26 01:13:52;;;;;;;4.22;2.28;;;;;;;16.61;100.00;94833.38;5106761;28;20047;-70
2021/08/26 01:16:19;;;;;;;2.97;2.22;;;;;;;16.56;100.00;94828.91;5106588;28;20039;-71
2021/08/26 01:18:47;;;;;;;3.97;2.65;;;;;;;16.60;100.00;94842.31;5125039;27;20035;-71
2021/08/26 01:21:20;;;;;;;4.70;2.95;;;;;;;16.64;100.00;94838.13;5126969;27;20393;-71
2021/08/26 01:23:51;;;;;;;3.33;2.05;;;;;;;16.70;100.00;94836.25;5127155;27;20843;-71
2021/08/26 01:26:33;;;;;;;3.22;2.25;;;;;;;16.70;100.00;94825.75;5126053;27;20091;-71
2021/08/26 01:29:02;;;;;;;3.60;2.63;;;;;;;16.67;100.00;94821.78;5122609;27;20043;-71
2021/08/26 01:31:30;;;;;;;4.25;2.78;;;;;;;16.70;100.00;94823.09;5106562;28;20048;-71
2021/08/26 01:33:58;;;;;;;3.90;2.60;;;;;;;16.70;100.00;94820.47;5115605;28;20518;-71
2021/08/26 01:36:35;;;;;;;3.85;2.15;;;;;;;16.66;100.00;94814.97;5105032;28;20043;-71
2021/08/26 01:39:13;;;;;;;4.38;2.70;;;;;;;16.62;100.00;94813.94;5111123;28;20043;-71
2021/08/26 01:41:52;;;;;;;3.15;2.45;;;;;;;16.54;100.00;94799.50;5126501;28;20051;-71
2021/08/26 01:44:29;;;;;;;4.55;3.08;;;;;;;16.60;100.00;94811.56;5105484;28;20504;-71
2021/08/26 01:47:07;;;;;;;3.47;1.80;;;;;;;16.69;100.00;94813.63;5121384;28;20396;-71
2021/08/26 01:49:34;;;;;;;5.47;3.20;;;;;;;16.58;100.00;94808.44;5099824;28;20095;-71
2021/08/26 01:52:01;;;;;;;3.83;2.45;;;;;;;16.52;100.00;94820.00;5112388;28;20420;-71
2021/08/26 01:54:28;;;;;;;5.35;2.53;;;;;;;16.35;100.00;94830.03;5107334;28;20036;-71
2021/08/26 01:56:55;;;;;;;2.88;2.10;;;;;;;16.29;100.00;94837.16;5129717;27;20023;-71
2021/08/26 01:59:22;;;;;;;4.25;2.70;;;;;;;16.22;100.00;94826.94;5112222;27;20043;-71
2021/08/26 02:01:49;;;;;;;5.15;3.22;;;;;;;16.24;100.00;94821.38;5111725;27;20501;-71
2021/08/26 02:04:16;;;;;;;5.75;2.80;;;;;;;16.25;100.00;94815.09;5108949;28;20070;-71
2021/08/26 02:06:43;;;;;;;4.07;2.42;;;;;;;16.21;100.00;94814.84;5123660;27;20035;-71
2021/08/26 02:09:10;;;;;;;3.55;2.00;;;;;;;16.09;100.00;94816.97;5130490;27;20050;-71
2021/08/26 02:11:37;;;;;;;4.68;2.55;;;;;;;15.99;100.00;94816.97;5129722;27;20036;-71
2021/08/26 02:14:03;;;;;;;4.40;3.15;;;;;;;15.96;100.00;94813.03;5111449;27;20054;-71
2021/08/26 02:16:30;;;;;;;4.03;3.05;;;;;;;15.94;100.00;94820.41;5113553;27;20044;-71
2021/08/26 02:18:57;;;;;;;4.82;2.22;;;;;;;15.83;100.00;94814.38;5091408;27;20055;-71
2021/08/26 02:21:27;;;;;;;3.63;2.42;;;;;;;15.89;100.00;94814.38;5115183;27;20076;-71
2021/08/26 02:23:55;;;;;;;3.33;2.35;;;;;;;15.91;100.00;94812.25;5130395;27;20060;-71
2021/08/26 02:26:22;;;;;;;3.45;2.13;;;;;;;15.80;100.00;94820.13;5110315;27;20051;-71
2021/08/26 02:28:49;;;;;;;5.22;2.10;;;;;;;15.82;100.00;94806.75;5129885;27;20039;-71
2021/08/26 02:31:16;;;;;;;2.72;2.00;;;;;;;15.84;100.00;94805.41;5129896;27;20039;-70
2021/08/26 02:33:43;;;;;;;3.83;2.38;;;;;;;15.84;100.00;94815.16;5107122;28;20055;-71
2021/08/26 02:36:09;;;;;;;3.58;2.28;;;;;;;15.93;100.00;94807.53;5105800;27;20028;-71
2021/08/26 02:38:36;;;;;;;4.25;2.10;;;;;;;15.95;100.00;94797.53;5110743;27;20043;-71
2021/08/26 02:41:03;;;;;;;5.35;2.50;;;;;;;16.00;100.00;94792.28;5130259;27;20039;-71
2021/08/26 02:43:30;;;;;;;5.13;2.25;;;;;;;15.99;100.00;94795.94;5121342;27;20047;-71
2021/08/26 02:45:57;;;;;;;2.42;1.75;;;;;;;16.06;100.00;94801.72;5109281;28;20036;-70
2021/08/26 02:48:24;;;;;;;2.83;2.33;;;;;;;16.02;100.00;94796.22;5123830;27;20035;-71
2021/08/26 02:50:51;;;;;;;4.28;2.33;;;;;;;16.02;100.00;94806.72;5129463;27;20450;-71
2021/08/26 02:53:17;;;;;;;3.25;1.95;;;;;;;16.00;100.00;94802.78;5109395;27;20043;-71
2021/08/26 02:55:44;;;;;;;4.68;3.20;;;;;;;16.01;100.00;94814.88;5107781;28;20416;-71
2021/08/26 02:58:11;;;;;;;4.22;3.08;;;;;;;16.01;100.00;94807.00;5122459;27;20092;-71
2021/08/26 03:00:38;;;;;;;5.05;3.35;;;;;;;15.94;100.00;94798.59;5125607;27;20039;-71
2021/08/26 03:03:05;;;;;;;5.15;3.00;;;;;;;15.88;100.00;94795.19;5129379;27;20031;-71
2021/08/26 03:05:32;;;;;;;4.43;2.10;;;;;;;15.83;100.00;94801.25;5119723;27;20043;-70
2021/08/26 03:07:59;;;;;;;3.97;2.55;;;;;;;15.85;100.00;94801.75;5117475;27;20035;-70
2021/08/26 03:10:28;;;;;;;3.53;2.25;;;;;;;15.84;100.00;94800.16;5115582;27;20059;-72
2021/08/26 03:12:55;;;;;;;3.92;2.88;;;;;;;15.79;100.00;94802.81;5128609;27;20116;-71
2021/08/26 03:15:22;;;;;;;5.35;2.97;;;;;;;15.65;100.00;94796.50;5110695;27;21647;-71
2021/08/26 03:17:49;;;;;;;4.38;2.42;;;;;;;15.74;100.00;94810.69;5128562;27;20043;-71
2021/08/26 03:20:16;;;;;;;3.13;2.22;;;;;;;15.76;100.00;94807.81;5126372;27;20043;-70
2021/08/26 03:22:43;;;;;;;5.88;2.30;;;;;;;15.71;100.00;94805.16;5128986;27;20050;-70
2021/08/26 03:25:10;;;;;;;3.90;2.20;;;;;;;15.70;100.00;94799.13;5128870;27;20092;-71
2021/08/26 03:27:36;;;;;;;4.72;2.72;;;;;;;15.63;100.00;94798.59;5117493;27;20031;-71
2021/08/26 03:30:05;;;;;;;4.90;2.67;;;;;;;15.48;100.00;94787.06;5128375;27;20085;-71
2021/08/26 03:32:32;;;;;;;5.90;2.88;;;;;;;15.52;100.00;94791.75;5126125;27;20045;-70
2021/08/26 03:34:59;;;;;;;5.45;2.72;;;;;;;15.55;100.00;94801.75;5122377;27;20050;-71
2021/08/26 03:37:26;;;;;;;3.88;2.58;;;;;;;15.49;100.00;94804.38;5095206;28;20045;-70
2021/08/26 03:39:53;;;;;;;5.30;3.08;;;;;;;15.53;100.00;94809.09;5119230;27;21985;-71
2021/08/26 03:42:20;;;;;;;4.90;3.28;;;;;;;15.54;100.00;94800.16;5121343;27;20051;-71
2021/08/26 03:44:47;;;;;;;4.15;3.38;;;;;;;15.56;100.00;94798.09;5107080;28;20097;-71
2021/08/26 03:47:14;;;;;;;5.03;2.97;;;;;;;15.54;100.00;94797.53;5123373;27;20500;-71
2021/08/26 03:49:41;;;;;;;6.93;3.50;;;;;;;15.51;100.00;94790.97;5128529;27;20035;-71
2021/08/26 03:52:07;;;;;;;5.57;3.13;;;;;;;15.55;100.00;94796.50;5118194;27;20044;-71
2021/08/26 03:54:36;;;;;;;7.00;3.60;;;;;;;15.52;100.00;94781.25;5126351;27;20038;-71
2021/08/26 03:57:03;;;;;;;4.57;2.95;;;;;;;15.59;100.00;94787.03;5107872;27;20035;-71
2021/08/26 03:59:30;;;;;;;4.78;3.40;;;;;;;15.55;100.00;94780.75;5108093;28;20042;-71
2021/08/26 04:01:57;;;;;;;4.25;3.00;;;;;;;15.62;100.00;94789.13;5125091;27;20039;-71
2021/08/26 04:04:24;;;;;;;5.40;3.63;;;;;;;15.70;100.00;94783.38;5125603;27;20054;-71
2021/08/26 04:06:51;;;;;;;4.55;3.05;;;;;;;15.53;100.00;94772.34;5107958;27;20039;-70
2021/08/26 04:09:18;;;;;;;5.05;2.88;;;;;;;15.45;100.00;94787.56;5111777;27;20044;-70
2021/08/26 04:11:45;;;;;;;5.75;3.28;;;;;;;15.38;100.00;94787.03;5116897;27;20503;-70
2021/08/26 04:14:12;;;;;;;5.38;2.95;;;;;;;15.31;100.00;94786.50;5127607;27;20130;-70
2021/08/26 04:16:39;;;;;;;6.75;3.95;;;;;;;15.29;100.00;94794.63;5126825;27;20119;-71
2021/08/26 04:19:05;;;;;;;4.55;3.38;;;;;;;15.26;100.00;94804.88;5127214;27;20035;-71
2021/08/26 04:21:33;;;;;;;5.35;2.53;;;;;;;15.22;100.00;94798.56;5127335;27;20103;-72
2021/08/26 04:23:59;;;;;;;7.07;4.60;;;;;;;15.23;100.00;94800.13;5127623;27;20428;-71
2021/08/26 04:26:26;;;;;;;5.57;3.03;;;;;;;15.19;100.00;94793.84;5127050;27;20484;-71
2021/08/26 04:28:53;;;;;;;5.75;2.92;;;;;;;15.19;100.00;94793.84;5126282;27;20043;-71
2021/08/26 04:31:20;;;;;;;5.45;3.28;;;;;;;15.14;100.00;94786.75;5125995;27;20043;-70
2021/08/26 04:33:46;;;;;;;6.60;3.50;;;;;;;15.25;100.00;94803.28;5121455;27;20565;-70
2021/08/26 04:36:13;;;;;;;5.13;3.35;;;;;;;15.32;100.00;94803.81;5107137;27;20443;-70
2021/08/26 04:38:40;;;;;;;5.40;3.72;;;;;;;15.48;100.00;94813.31;5106222;27;20499;-70
2021/08/26 04:41:07;;;;;;;5.85;3.00;;;;;;;15.58;100.00;94816.97;5105831;28;20437;-71
2021/08/26 04:43:34;;;;;;;4.10;2.67;;;;;;;15.62;100.00;94823.28;5107126;27;20092;-71
2021/08/26 04:46:02;;;;;;;5.07;3.03;;;;;;;15.65;100.00;94801.75;5106787;28;20046;-71
2021/08/26 04:48:29;;;;;;;5.28;2.97;;;;;;;15.71;100.00;94811.19;5115131;27;20099;-71
2021/08/26 04:50:56;;;;;;;5.93;3.30;;;;;;;15.66;100.00;94798.06;5127158;27;20507;-71
2021/08/26 04:53:23;;;;;;;6.60;3.63;;;;;;;15.70;100.00;94793.88;5124644;27;20512;-71
2021/08/26 04:55:50;;;;;;;5.20;3.35;;;;;;;15.81;100.00;94779.72;5106912;28;20118;-70
2021/08/26 04:58:17;;;;;;;4.95;2.75;;;;;;;16.05;100.00;94768.63;5116656;27;20123;-70
2021/08/26 05:00:44;;;;;;;5.40;3.38;;;;;;;16.20;100.00;94776.47;5125689;27;20047;-70
2021/08/26 05:03:11;;;;;;;4.55;2.65;;;;;;;16.24;100.00;94771.47;5125441;27;20051;-70
2021/08/26 05:05:38;;;;;;;5.20;3.17;;;;;;;16.34;100.00;94770.66;5112286;27;20047;-70
2021/08/26 05:08:05;;;;;;;3.58;2.20;;;;;;;16.44;100.00;94770.63;5112794;27;20031;-70
2021/08/26 05:10:39;;;;;;;3.85;2.45;;;;;;;16.59;100.00;94775.81;5114233;27;20067;-70
2021/08/26 05:13:07;;;;;;;5.07;3.20;;;;;;;16.60;100.00;94761.63;5106813;27;20523;-70
2021/08/26 05:15:38;;;;;;;5.18;3.13;;;;;;;16.72;100.00;94771.03;5116956;27;20419;-69
2021/08/26 05:18:06;;;;;;;6.05;3.65;;;;;;;16.85;100.00;94778.34;5117263;27;20042;-69
2021/08/26 05:20:32;;;;;;;5.13;2.72;;;;;;;16.99;100.00;94784.56;5114755;27;20449;-70
2021/08/26 05:22:59;;;;;;;3.58;2.13;;;;;;;16.94;100.00;94779.38;5126963;27;20496;-70
2021/08/26 05:25:26;;;;;;;4.90;2.92;;;;;;;17.04;100.00;94778.50;5105759;28;20047;-70
2021/08/26 05:27:53;;;;;;;4.82;3.15;;;;;;;17.06;100.00;94771.13;5106954;28;20392;-70
2021/08/26 05:30:20;;;;;;;5.43;2.78;;;;;;;17.20;100.00;94790.50;5126118;27;20039;-71
2021/08/26 05:32:48;;;;;;;7.50;2.70;;;;;;;17.20;100.00;94789.72;5111566;27;20050;-70
2021/08/26 05:35:15;;;;;;;3.33;2.78;;;;;;;17.27;100.00;94797.31;5107279;28;20052;-70
2021/08/26 05:37:42;;;;;;;4.40;2.55;;;;;;;17.37;100.00;94792.75;5104159;28;20046;-70
2021/08/26 05:40:09;;;;;;;3.72;2.25;;;;;;;17.42;100.00;94783.28;5119322;28;20146;-70
2021/08/26 05:42:35;;;;;;;3.15;2.65;;;;;;;17.52;100.00;94783.97;5120077;28;20043;-70
2021/08/26 05:45:03;;;;;;;4.55;2.50;;;;;;;17.30;100.00;94792.28;5116213;28;20074;-70
2021/08/26 05:47:30;;;;;;;2.97;2.17;;;;;;;17.08;100.00;94781.38;5116662;28;20043;-70
2021/08/26 05:49:57;;;;;;;4.00;2.85;;;;;;;17.07;100.00;94766.63;5106110;28;20046;-72
2021/08/26 05:52:24;;;;;;;3.28;2.30;;;;;;;17.09;100.00;94775.06;5117127;28;20040;-71
2021/08/26 05:54:50;;;;;;;3.55;2.13;;;;;;;17.00;100.00;94767.75;5111833;28;20043;-72
2021/08/26 05:57:17;;;;;;;4.32;3.25;;;;;;;17.07;100.00;94766.63;5113576;28;20082;-72
2021/08/26 05:59:44;;;;;;;5.75;4.05;;;;;;;17.19;100.00;94751.31;5121779;28;20039;-72
2021/08/26 06:02:11;;;;;;;5.05;3.17;;;;;;;16.76;100.00;94719.44;5117050;28;20516;-72
2021/08/26 06:04:38;;;;;;;4.32;2.80;;;;;;;16.90;100.00;94746.75;5114608;28;20039;-72
2021/08/26 06:07:05;;;;;;;3.17;2.10;;;;;;;17.00;100.00;94759.06;5098041;28;20039;-72
2021/08/26 06:09:31;;;;;;;3.03;2.20;;;;;;;17.02;100.00;94764.06;5107811;28;20039;-72
2021/08/26 06:11:58;;;;;;;5.43;2.67;;;;;;;16.87;100.00;94765.72;5113789;28;20043;-73
2021/08/26 06:14:25;;;;;;;3.88;3.10;;;;;;;16.83;100.00;94762.03;5116977;28;20058;-73
2021/08/26 06:16:52;;;;;;;5.85;2.85;;;;;;;17.06;100.00;94775.63;5114059;28;20043;-72
2021/08/26 06:19:19;;;;;;;5.00;3.15;;;;;;;17.28;100.00;94783.88;5112660;28;20043;-72
2021/08/26 06:21:45;;;;;;;4.72;3.20;;;;;;;17.54;100.00;94765.28;5113336;28;20101;-71
2021/08/26 06:24:12;;;;;;;5.93;3.28;;;;;;;17.63;100.00;94763.63;5113889;28;20062;-72
2021/08/26 06:26:39;;;;;;;3.88;2.78;;;;;;;17.51;100.00;94771.09;5115871;28;20039;-72
2021/08/26 06:29:06;;;;;;;3.30;2.25;;;;;;;17.51;100.00;94776.34;5115578;28;20096;-72
2021/08/26 06:31:32;;;;;;;4.18;2.42;;;;;;;17.48;100.00;94776.88;5111094;28;20043;-72
2021/08/26 06:34:00;;;;;;;3.13;2.10;;;;;;;17.72;100.00;94777.75;5111689;28;20048;-71
2021/08/26 06:36:27;;;;;;;3.45;2.22;;;;;;;17.85;100.00;94780.81;5105922;28;20048;-72
2021/08/26 06:38:54;;;;;;;3.47;2.10;;;;;;;17.95;99.23;94770.19;5104898;28;20069;-72
2021/08/26 06:41:21;;;;;;;3.50;1.73;;;;;;;18.09;98.62;94776.38;5109855;27;20066;-72
2021/08/26 06:43:47;;;;;;;2.58;1.48;;;;;;;18.22;96.16;94768.88;5106786;28;20492;-71
2021/08/26 06:46:14;;;;;;;3.35;1.85;;;;;;;18.04;97.07;94736.91;5111796;27;20040;-72
2021/08/26 06:48:41;;;;;;;3.72;2.05;;;;;;;17.69;98.97;94724.84;5112314;27;20034;-71
2021/08/26 06:51:08;;;;;;;2.78;1.98;;;;;;;17.73;99.06;94731.91;5118376;27;20055;-71
2021/08/26 06:53:35;;;;;;;2.55;1.92;;;;;;;17.93;100.00;94767.03;5108000;28;20050;-72
2021/08/26 06:56:02;;;;;;;4.22;2.63;;;;;;;18.22;97.86;94763.59;5107862;28;20420;-71
2021/08/26 06:58:28;;;;;;;2.28;1.85;;;;;;;18.33;95.12;94759.81;5107790;28;20035;-71
2021/08/26 07:00:55;;;;;;;3.88;2.13;;;;;;;18.43;92.46;94769.44;5107916;27;20039;-72
2021/08/26 07:03:22;;;;;;;4.03;3.13;;;;;;;18.53;93.79;94775.38;5110595;27;20420;-72
2021/08/26 07:05:49;;;;;;;2.03;1.48;;;;;;;18.58;94.01;94771.09;5103484;27;20056;-71
2021/08/26 07:08:16;;;;;;;5.15;3.28;;;;;;;18.60;93.10;94763.69;5106064;27;20432;-71
2021/08/26 07:10:43;;;;;;;32.67;16.83;;;;;;;18.74;95.65;94769.84;5106609;27;20460;-71
2021/08/26 07:13:09;;;;;;;27.73;13.30;;;;;;;18.74;95.40;94769.84;5111247;27;20039;-71
2021/08/26 07:15:36;;;;;;;13.98;6.40;;;;;;;18.88;94.67;94768.09;5107297;27;20043;-71
2021/08/26 07:18:03;;;;;;;7.85;4.05;;;;;;;19.13;94.53;94774.09;5110152;27;20088;-71
2021/08/26 07:20:30;;;;;;;3.13;1.73;;;;;;;19.34;92.21;94781.72;5119766;27;20054;-71
2021/08/26 07:22:57;;;;;;;1.55;1.38;;;;;;;19.33;87.16;94774.88;5111010;27;20042;-71
2021/08/26 07:25:24;;;;;;;2.15;1.40;;;;;;;19.32;87.63;94778.56;5108208;27;20044;-71
2021/08/26 07:27:51;;;;;;;2.83;1.70;;;;;;;19.35;88.17;94756.88;5127041;27;20035;-71
2021/08/26 07:30:18;;;;;;;3.65;1.80;;;;;;;19.54;88.80;94765.56;5127139;27;20077;-71
2021/08/26 07:32:45;;;;;;;4.00;2.15;;;;;;;19.78;91.27;94769.97;5113896;27;20048;-71
2021/08/26 07:35:11;;;;;;;3.20;1.95;;;;;;;19.92;87.23;94768.13;5123821;27;20054;-71
2021/08/26 07:37:38;;;;;;;2.28;1.40;;;;;;;20.06;85.64;94760.22;5119506;27;20040;-72
2021/08/26 07:40:05;;;;;;;3.72;1.83;;;;;;;20.08;84.94;94754.63;5110882;27;20104;-72
2021/08/26 07:42:32;;;;;;;3.75;2.20;;;;;;;19.95;87.25;94762.28;5108410;27;20043;-72
2021/08/26 07:45:02;;;;;;;4.82;2.53;;;;;;;19.68;88.27;94771.69;5108784;28;20065;-72
2021/08/26 07:47:30;;;;;;;3.50;2.08;;;;;;;19.84;84.57;94779.38;5108421;28;20039;-71
2021/08/26 07:50:04;;;;;;;3.03;2.03;;;;;;;19.74;85.80;94747.84;5107850;27;20100;-72
2021/08/26 07:52:31;;;;;;;2.67;1.83;;;;;;;19.80;86.28;94757.25;5105862;28;20051;-72
2021/08/26 07:54:58;;;;;;;3.13;2.03;;;;;;;20.01;82.99;94769.03;5122002;27;20084;-72
2021/08/26 07:57:25;;;;;;;2.90;1.85;;;;;;;19.97;85.61;94772.53;5106560;28;20039;-73
2021/08/26 07:59:52;;;;;;;3.40;1.90;;;;;;;20.07;84.44;94771.59;5107808;27;20043;-73
2021/08/26 08:02:19;;;;;;;3.30;1.77;;;;;;;20.10;85.77;94749.84;5108644;27;20420;-73
2021/08/26 08:04:46;;;;;;;6.88;2.40;;;;;;;20.07;88.95;94755.72;5105776;28;20031;-73
2021/08/26 08:07:12;;;;;;;3.78;2.55;;;;;;;20.12;84.49;94769.63;5108189;27;20054;-73
2021/08/26 08:09:39;;;;;;;3.13;2.22;;;;;;;20.15;82.79;94776.19;5111267;27;20063;-73
2021/08/26 08:12:06;;;;;;;2.80;2.10;;;;;;;20.13;82.51;94775.69;5107886;28;20502;-73
2021/08/26 08:14:33;;;;;;;3.63;2.28;;;;;;;19.99;82.71;94763.25;5103516;28;20493;-73
2021/08/26 08:17:00;;;;;;;2.95;2.40;;;;;;;20.05;86.08;94758.66;5104446;27;20043;-73
2021/08/26 08:19:27;;;;;;;3.78;2.53;;;;;;;19.98;83.84;94743.16;5106521;27;20062;-73
2021/08/26 08:21:53;;;;;;;2.67;1.92;;;;;;;20.27;79.06;94739.47;5115832;27;20050;-73
2021/08/26 08:24:20;;;;;;;3.47;2.10;;;;;;;20.42;78.45;94731.25;5113817;27;20052;-74
2021/08/26 08:26:47;;;;;;;3.60;2.45;;;;;;;20.68;78.86;94737.91;5113521;27;20047;-73
2021/08/26 08:29:14;;;;;;;3.70;2.45;;;;;;;20.90;78.41;94745.09;5116285;27;20064;-71
2021/08/26 08:31:40;;;;;;;3.70;1.77;;;;;;;21.19;80.02;94752.66;5118148;27;20466;-73
2021/08/26 08:34:07;;;;;;;5.03;3.92;;;;;;;21.27;77.00;94738.72;5118420;27;20075;-72
2021/08/26 08:36:34;;;;;;;3.88;2.40;;;;;;;21.44;74.62;94742.56;5110256;27;20400;-72
2021/08/26 08:39:01;;;;;;;3.35;2.10;;;;;;;21.50;75.01;94750.13;5108328;27;20523;-72
2021/08/26 08:41:28;;;;;;;3.95;2.55;;;;;;;21.54;74.91;94752.97;5115239;27;20478;-72
2021/08/26 08:43:57;;;;;;;3.58;2.05;;;;;;;21.50;75.10;94744.84;5119098;27;20051;-72
2021/08/26 08:46:24;;;;;;;4.68;3.47;;;;;;;21.43;76.87;94741.78;5101453;27;20053;-72
2021/08/26 08:48:51;;;;;;;3.42;2.70;;;;;;;21.54;76.46;94737.84;5109137;27;20051;-72
2021/08/26 08:51:19;;;;;;;4.63;3.03;;;;;;;21.66;75.91;94750.56;5106667;27;20052;-73
2021/08/26 08:53:46;;;;;;;4.13;1.80;;;;;;;21.43;76.00;94752.41;5104892;27;20059;-72
2021/08/26 08:56:13;;;;;;;5.10;3.08;;;;;;;21.48;75.62;94760.25;5105486;28;20886;-72
2021/08/26 08:58:41;;;;;;;3.33;2.55;;;;;;;21.14;76.85;94764.16;5105032;27;20048;-72
2021/08/26 09:01:09;;;;;;;4.45;2.53;;;;;;;21.03;78.03;94767.34;5106512;27;20035;-72
2021/08/26 09:03:37;;;;;;;4.35;2.20;;;;;;;20.88;78.32;94773.75;5105777;27;20039;-73
2021/08/26 09:06:04;;;;;;;3.33;2.00;;;;;;;20.97;78.82;94777.25;5107730;27;20051;-74
2021/08/26 09:08:33;;;;;;;5.22;3.47;;;;;;;20.77;79.76;94776.59;5087649;28;20055;-75
2021/08/26 09:11:14;;;;;;;3.85;2.50;;;;;;;20.67;80.50;94782.13;5108405;27;20044;-74
2021/08/26 09:13:44;;;;;;;3.78;2.05;;;;;;;20.35;81.19;94764.47;5113710;27;20054;-74
2021/08/26 09:16:12;;;;;;;3.47;2.33;;;;;;;20.43;85.07;94769.06;5110673;27;20047;-74
2021/08/26 09:18:40;;;;;;;4.28;2.70;;;;;;;20.40;84.44;94770.44;5107132;28;20044;-73
2021/08/26 09:21:13;;;;;;;4.25;2.80;;;;;;;20.52;84.65;94777.09;5107242;28;20036;-74
2021/08/26 09:24:00;;;;;;;4.10;2.65;;;;;;;20.51;84.52;94770.22;5106271;28;20040;-74
2021/08/26 09:26:29;;;;;;;4.43;2.65;;;;;;;20.62;83.67;94771.63;5113070;27;20035;-74
2021/08/26 09:29:02;;;;;;;4.63;3.55;;;;;;;20.58;85.79;94773.25;5112886;28;20055;-74
2021/08/26 09:31:31;;;;;;;4.88;2.90;;;;;;;20.52;84.46;94777.84;5113538;27;20039;-73
2021/08/26 09:34:05;;;;;;;5.43;2.80;;;;;;;20.66;84.58;94767.31;5110133;27;20475;-74
2021/08/26 09:36:37;;;;;;;4.32;2.65;;;;;;;20.77;86.39;94768.66;5117797;28;20500;-73
2021/08/26 09:39:06;;;;;;;4.22;2.58;;;;;;;20.91;82.24;94770.50;5111468;28;20050;-73
2021/08/26 09:41:47;;;;;;;5.88;3.25;;;;;;;20.89;83.63;94783.25;5112838;28;20508;-73
2021/08/26 09:44:22;;;;;;;3.42;2.40;;;;;;;20.93;81.87;94792.16;5106065;28;20043;-74
2021/08/26 09:46:51;;;;;;;9.38;2.55;;;;;;;20.96;79.43;94783.66;5102664;28;20535;-72
2021/08/26 09:49:21;;;;;;;4.60;3.03;;;;;;;20.86;79.84;94781.97;5110807;28;20054;-73
2021/08/26 09:52:13;;;;;;;5.50;2.40;;;;;;;20.68;81.80;94783.66;5111581;27;20047;-72
2021/08/26 09:54:43;;;;;;;8.57;3.05;;;;;;;20.58;81.69;94791.78;5104813;28;20526;-73
2021/08/26 09:57:26;;;;;;;5.57;3.20;;;;;;;20.57;82.00;94790.22;5119553;28;20039;-72
2021/08/26 09:59:57;;;;;;;5.03;2.53;;;;;;;20.39;84.50;94779.44;5109825;28;20049;-73
2021/08/26 10:02:27;;;;;;;4.88;3.00;;;;;;;20.39;83.71;94784.72;5110512;28;20052;-72
2021/08/26 10:04:55;;;;;;;3.95;3.03;;;;;;;20.42;84.43;94784.16;5108333;28;20050;-73
2021/08/26 10:07:25;;;;;;;3.97;2.78;;;;;;;20.44;83.34;94779.34;5097336;28;20059;-72
2021/08/26 10:09:53;;;;;;;3.38;2.22;;;;;;;20.32;84.17;94784.31;5107932;28;20051;-73
2021/08/26 10:12:20;;;;;;;5.30;3.05;;;;;;;20.18;86.55;94772.97;5109048;28;20102;-72
2021/08/26 10:14:49;;;;;;;3.42;2.50;;;;;;;20.03;88.05;94772.16;5113386;28;20047;-74
2021/08/26 10:17:17;;;;;;;3.72;2.30;;;;;;;20.19;89.07;94780.59;5117288;27;20039;-77
2021/08/26 10:19:44;;;;;;;5.30;3.13;;;;;;;20.20;87.57;94770.81;5115546;27;20050;-75
2021/08/26 10:22:13;;;;;;;4.22;2.47;;;;;;;20.56;89.51;94762.19;5118926;27;20032;-74
2021/08/26 10:24:40;;;;;;;10.15;5.40;;;;;;;20.96;89.29;94770.41;5113706;27;20059;-74
2021/08/26 10:27:13;;;;;;;3.45;2.58;;;;;;;21.42;88.58;94782.59;5111914;27;20044;-74
2021/08/26 10:29:45;;;;;;;4.88;3.60;;;;;;;21.84;79.87;94777.13;5116704;27;20528;-72
2021/08/26 10:32:18;;;;;;;4.05;2.58;;;;;;;21.88;76.96;94778.88;5108344;28;20031;-72
2021/08/26 10:35:03;;;;;;;3.90;2.20;;;;;;;21.73;80.04;94781.91;5119718;27;20053;-72
2021/08/26 10:37:42;;;;;;;5.75;2.67;;;;;;;21.78;77.90;94765.88;5118755;27;20035;-72
2021/08/26 10:40:31;;;;;;;3.85;2.25;;;;;;;21.79;81.77;94770.09;5108192;27;20047;-71
2021/08/26 10:42:59;;;;;;;4.25;2.78;;;;;;;21.73;81.37;94777.41;5094031;28;20058;-72
2021/08/26 10:45:47;;;;;;;4.80;3.20;;;;;;;21.78;79.37;94765.88;5117469;27;20035;-71
2021/08/26 10:48:17;;;;;;;2.63;1.48;;;;;;;21.95;79.42;94771.28;5112787;27;20043;-71
2021/08/26 10:50:45;;;;;;;3.47;2.40;;;;;;;22.15;78.65;94772.63;5113613;27;20091;-71
2021/08/26 10:53:15;;;;;;;3.00;2.55;;;;;;;22.49;76.45;94770.44;5114141;27;20440;-71
2021/08/26 10:55:46;;;;;;;3.85;2.90;;;;;;;22.43;79.71;94772.44;5107388;27;20036;-72
2021/08/26 10:58:25;;;;;;;4.82;3.35;;;;;;;22.57;79.35;94761.72;5114098;27;20070;-72
2021/08/26 11:01:00;;;;;;;4.78;2.72;;;;;;;22.85;73.16;94761.44;5112675;27;20510;-72
2021/08/26 11:03:51;;;;;;;4.93;2.67;;;;;;;23.12;74.12;94754.31;5113906;27;20051;-72
2021/08/26 11:06:19;;;;;;;3.60;1.80;;;;;;;23.34;74.46;94762.16;5114055;27;20035;-72
2021/08/26 11:08:58;;;;;;;5.07;2.30;;;;;;;23.42;71.09;94753.38;5112022;27;20035;-72
2021/08/26 11:14:06;;;;;;;3.85;2.42;;;;;;;23.88;72.42;94758.34;5114954;27;20830;-73
2021/08/26 11:16:38;;;;;;;2.97;2.08;;;;;;;24.46;68.62;94751.56;5111381;27;20275;-73
2021/08/26 11:19:05;;;;;;;2.70;2.40;;;;;;;24.65;67.98;94753.06;5112540;27;20416;-73
2021/08/26 11:21:43;;;;;;;6.03;3.75;;;;;;;24.59;65.11;94753.22;5116174;27;20050;-72
2021/08/26 11:24:16;;;;;;;4.43;2.88;;;;;;;23.84;68.76;94737.72;5111934;27;20039;-72
2021/08/26 11:26:45;;;;;;;;;;;;;;;23.61;72.09;94733.69;5101642;27;20051;-72
2021/08/26 11:29:21;;;;;;;5.18;3.08;;;;;;;23.74;70.19;94722.06;5109095;27;19958;-72
2021/08/26 11:31:54;;;;;;;4.25;3.42;;;;;;;24.27;70.15;94716.56;5107260;28;20044;-72
2021/08/26 11:34:27;;;;;;;4.40;3.03;;;;;;;24.51;66.91;94706.13;5108861;27;20530;-72
2021/08/26 11:37:05;;;;;;;4.50;2.60;;;;;;;24.46;69.46;94719.63;5107664;28;20043;-73
2021/08/26 11:39:41;;;;;;;4.78;3.17;;;;;;;24.69;66.57;94719.38;5109034;27;20036;-72
2021/08/26 11:42:28;;;;;;;5.07;2.97;;;;;;;25.18;68.36;94698.31;5107416;27;20055;-72
2021/08/26 11:45:13;;;;;;;4.68;3.15;;;;;;;25.66;65.05;94720.94;5110127;27;20054;-72